createdAt,value
2019-03-31T00:01:07.304Z,101624.48
2019-03-31T00:03:26.601Z,101621.20
2019-03-31T00:05:58.190Z,101615.42
2019-03-31T00:08:30.019Z,101615.30
2019-03-31T00:11:01.658Z,101616.83
2019-03-31T00:13:33.540Z,101612.42
2019-03-31T00:16:05.509Z,101620.59
2019-03-31T00:18:37.360Z,101613.49
2019-03-31T00:21:08.819Z,101605.70
2019-03-31T00:23:40.554Z,101610.38
2019-03-31T00:26:12.237Z,101611.42
2019-03-31T00:28:43.782Z,101606.10
2019-03-31T00:31:22.083Z,101603.80
2019-03-31T00:33:48.847Z,101602.27
2019-03-31T00:36:22.269Z,101603.92
2019-03-31T00:38:54.103Z,101602.27
2019-03-31T00:41:25.662Z,101603.70
2019-03-31T00:43:57.316Z,101607.86
2019-03-31T00:46:29.091Z,101598.61
2019-03-31T00:49:01.553Z,101596.54
2019-03-31T00:51:33.311Z,101606.23
2019-03-31T00:54:05.062Z,101594.95
2019-03-31T00:56:36.734Z,101596.67
2019-03-31T00:59:08.490Z,101604.33
2019-03-31T01:01:53.959Z,101593.07
2019-03-31T01:04:26.839Z,101589.27
2019-03-31T01:06:59.276Z,101591.73
2019-03-31T01:09:33.135Z,101586.61
2019-03-31T01:12:04.815Z,101579.51
2019-03-31T01:14:36.435Z,101573.25
2019-03-31T01:17:09.907Z,101581.62
2019-03-31T01:19:41.726Z,101580.97
2019-03-31T01:22:13.261Z,101580.55
2019-03-31T01:24:45.123Z,101584.21
2019-03-31T01:27:18.334Z,101578.56
2019-03-31T01:29:50.003Z,101576.62
2019-03-31T01:32:21.444Z,101580.48
2019-03-31T01:34:53.200Z,101572.17
2019-03-31T01:37:25.062Z,101571.36
2019-03-31T01:39:56.515Z,101557.94
2019-03-31T01:42:28.272Z,101561.80
2019-03-31T01:45:00.149Z,101565.66
2019-03-31T01:47:32.410Z,101562.19
2019-03-31T01:50:04.147Z,101563.05
2019-03-31T01:52:35.627Z,101564.77
2019-03-31T01:55:08.223Z,101569.56
2019-03-31T01:57:39.760Z,101566.78
2019-03-31T02:00:28.139Z,101563.83
2019-03-31T02:02:59.971Z,101567.10
2019-03-31T02:05:31.446Z,101570.90
2019-03-31T02:08:03.093Z,101568.63
2019-03-31T02:10:34.721Z,101572.09
2019-03-31T02:13:06.496Z,101568.43
2019-03-31T02:15:38.036Z,101564.96
2019-03-31T02:18:09.946Z,101571.91
2019-03-31T02:20:41.468Z,101567.62
2019-03-31T02:23:13.345Z,101569.44
2019-03-31T02:25:44.869Z,101572.80
2019-03-31T02:28:16.526Z,101574.52
2019-03-31T02:30:48.414Z,101573.86
2019-03-31T02:33:20.174Z,101568.93
2019-03-31T02:35:51.917Z,101572.78
2019-03-31T02:38:23.565Z,101573.98
2019-03-31T02:40:55.440Z,101572.38
2019-03-31T02:43:27.196Z,101571.24
2019-03-31T02:45:58.778Z,101568.48
2019-03-31T02:48:30.423Z,101564.98
2019-03-31T02:51:01.887Z,101567.50
2019-03-31T02:53:33.329Z,101562.89
2019-03-31T02:56:04.990Z,101560.72
2019-03-31T02:58:36.564Z,101564.71
2019-03-31T03:01:08.209Z,101564.41
2019-03-31T03:03:39.963Z,101569.92
2019-03-31T03:06:11.504Z,101574.20
2019-03-31T03:08:45.122Z,101576.86
2019-03-31T03:11:17.082Z,101583.20
2019-03-31T03:13:50.481Z,101577.09
2019-03-31T03:16:22.229Z,101579.95
2019-03-31T03:18:53.692Z,101584.64
2019-03-31T03:21:25.566Z,101580.52
2019-03-31T03:23:57.697Z,101572.22
2019-03-31T03:26:29.179Z,101573.92
2019-03-31T03:29:00.641Z,101568.48
2019-03-31T03:31:32.490Z,101574.16
2019-03-31T03:34:04.037Z,101568.66
2019-03-31T03:36:35.548Z,101569.48
2019-03-31T03:39:08.287Z,101577.11
2019-03-31T03:41:40.049Z,101572.65
2019-03-31T03:44:11.696Z,101568.48
2019-03-31T03:46:43.564Z,101565.77
2019-03-31T03:49:15.241Z,101567.38
2019-03-31T03:51:46.863Z,101562.00
2019-03-31T03:54:18.847Z,101563.58
2019-03-31T03:56:50.379Z,101562.52
2019-03-31T03:59:22.263Z,101566.77
2019-03-31T04:01:54.006Z,101574.36
2019-03-31T04:04:25.684Z,101578.42
2019-03-31T04:06:57.331Z,101578.70
2019-03-31T04:09:29.083Z,101583.63
2019-03-31T04:12:00.653Z,101576.41
2019-03-31T04:14:32.417Z,101580.66
2019-03-31T04:17:04.158Z,101574.34
2019-03-31T04:19:35.722Z,101572.56
2019-03-31T04:22:07.278Z,101566.17
2019-03-31T04:24:39.045Z,101567.80
2019-03-31T04:27:10.701Z,101567.41
2019-03-31T04:29:42.470Z,101564.08
2019-03-31T04:32:14.102Z,101568.52
2019-03-31T04:34:45.886Z,101568.94
2019-03-31T04:37:18.362Z,101565.89
2019-03-31T04:39:50.097Z,101568.48
2019-03-31T04:42:21.572Z,101568.35
2019-03-31T04:44:53.290Z,101568.48
2019-03-31T04:47:24.989Z,101564.94
2019-03-31T04:49:56.748Z,101562.70
2019-03-31T04:52:28.493Z,101563.08
2019-03-31T04:55:00.486Z,101553.81
2019-03-31T04:57:32.045Z,101554.48
2019-03-31T05:00:04.161Z,101555.05
2019-03-31T05:02:35.954Z,101552.72
2019-03-31T05:05:07.721Z,101553.09
2019-03-31T05:07:39.380Z,101555.27
2019-03-31T05:10:11.238Z,101563.42
2019-03-31T05:12:42.941Z,101554.14
2019-03-31T05:15:14.451Z,101561.12
2019-03-31T05:17:46.099Z,101561.28
2019-03-31T05:20:17.753Z,101558.94
2019-03-31T05:22:52.611Z,101557.75
2019-03-31T05:25:23.011Z,101559.55
2019-03-31T05:27:54.588Z,101559.17
2019-03-31T05:30:26.546Z,101554.26
2019-03-31T05:32:57.979Z,101555.72
2019-03-31T05:35:29.757Z,101556.77
2019-03-31T05:38:01.411Z,101546.62
2019-03-31T05:40:33.279Z,101552.88
2019-03-31T05:43:04.725Z,101550.44
2019-03-31T05:45:36.776Z,101545.91
2019-03-31T05:48:08.326Z,101547.53
2019-03-31T05:50:40.007Z,101546.47
2019-03-31T05:53:11.852Z,101549.75
2019-03-31T05:55:43.509Z,101550.12
2019-03-31T05:58:15.079Z,101552.23
2019-03-31T06:00:46.946Z,101548.99
2019-03-31T06:03:18.605Z,101545.43
2019-03-31T06:05:50.665Z,101544.13
2019-03-31T06:08:22.537Z,101545.87
2019-03-31T06:10:54.167Z,101547.94
2019-03-31T06:13:26.153Z,101543.09
2019-03-31T06:15:58.014Z,101537.44
2019-03-31T06:18:30.062Z,101536.30
2019-03-31T06:21:01.538Z,101534.10
2019-03-31T06:23:33.237Z,101532.05
2019-03-31T06:26:05.153Z,101527.23
2019-03-31T06:28:36.922Z,101529.66
2019-03-31T06:31:08.456Z,101523.47
2019-03-31T06:33:40.331Z,101527.75
2019-03-31T06:36:11.884Z,101525.54
2019-03-31T06:38:43.445Z,101522.58
2019-03-31T06:41:15.196Z,101517.73
2019-03-31T06:43:46.636Z,101523.62
2019-03-31T06:46:18.867Z,101515.55
2019-03-31T06:48:50.405Z,101510.84
2019-03-31T06:51:22.503Z,101501.87
2019-03-31T06:53:53.992Z,101498.26
2019-03-31T06:56:25.937Z,101496.00
2019-03-31T06:58:57.835Z,101496.00
2019-03-31T07:01:30.193Z,101490.31
2019-03-31T07:04:02.060Z,101490.31
2019-03-31T07:06:33.819Z,101494.17
2019-03-31T07:09:06.386Z,101492.37
2019-03-31T07:11:38.155Z,101486.16
2019-03-31T07:14:10.001Z,101477.28
2019-03-31T07:16:41.759Z,101482.72
2019-03-31T07:19:13.427Z,101486.76
2019-03-31T07:21:45.187Z,101480.20
2019-03-31T07:24:16.638Z,101482.05
2019-03-31T07:26:48.809Z,101482.19
2019-03-31T07:29:20.770Z,101473.16
2019-03-31T07:31:52.445Z,101470.81
2019-03-31T07:34:24.299Z,101470.40
2019-03-31T07:36:56.504Z,101462.09
2019-03-31T07:39:28.204Z,101462.19
2019-03-31T07:42:00.186Z,101463.34
2019-03-31T07:44:32.141Z,101459.55
2019-03-31T07:47:03.697Z,101459.55
2019-03-31T07:49:35.137Z,101458.45
2019-03-31T07:52:06.884Z,101456.27
2019-03-31T07:54:38.771Z,101446.73
2019-03-31T07:57:10.407Z,101446.73
2019-03-31T07:59:42.135Z,101441.76
2019-03-31T08:02:14.147Z,101442.80
2019-03-31T08:04:45.592Z,101441.67
2019-03-31T08:07:17.577Z,101445.39
2019-03-31T08:09:49.802Z,101442.93
2019-03-31T08:12:21.277Z,101438.58
2019-03-31T08:14:53.156Z,101439.06
2019-03-31T08:17:24.914Z,101434.67
2019-03-31T08:19:56.775Z,101434.30
2019-03-31T08:22:28.539Z,101439.92
2019-03-31T08:25:00.511Z,101439.88
2019-03-31T08:27:32.362Z,101424.63
2019-03-31T08:30:04.715Z,101428.08
2019-03-31T08:32:36.755Z,101431.52
2019-03-31T08:35:08.789Z,101418.91
2019-03-31T08:37:40.832Z,101420.48
2019-03-31T08:40:12.794Z,101419.87
2019-03-31T08:42:44.344Z,101415.41
2019-03-31T08:45:16.091Z,101398.77
2019-03-31T08:47:47.640Z,101400.09
2019-03-31T08:50:19.684Z,101397.17
2019-03-31T08:52:51.381Z,101403.08
2019-03-31T08:55:23.319Z,101394.03
2019-03-31T08:57:55.822Z,101392.81
2019-03-31T09:00:30.757Z,101387.23
2019-03-31T09:03:02.494Z,101394.50
2019-03-31T09:05:34.066Z,101391.46
2019-03-31T09:08:05.513Z,101385.36
2019-03-31T09:10:37.156Z,101386.45
2019-03-31T09:13:09.138Z,101390.48
2019-03-31T09:15:40.928Z,101387.75
2019-03-31T09:18:13.577Z,101374.95
2019-03-31T09:20:45.152Z,101382.72
2019-03-31T09:23:17.584Z,101385.05
2019-03-31T09:25:49.216Z,101382.59
2019-03-31T09:28:23.673Z,101371.59
2019-03-31T09:30:55.024Z,101370.70
2019-03-31T09:33:27.189Z,101363.67
2019-03-31T09:35:58.555Z,101362.47
2019-03-31T09:38:30.810Z,101362.29
2019-03-31T09:41:03.452Z,101355.41
2019-03-31T09:43:35.163Z,101359.33
2019-03-31T09:46:06.616Z,101354.38
2019-03-31T09:48:38.480Z,101344.41
2019-03-31T09:51:10.447Z,101343.30
2019-03-31T09:53:42.096Z,101345.11
2019-03-31T09:56:15.334Z,101342.37
2019-03-31T09:58:47.054Z,101338.09
2019-03-31T10:01:18.525Z,101334.04
2019-03-31T10:03:50.492Z,101336.17
2019-03-31T10:06:30.244Z,101340.51
2019-03-31T10:08:55.530Z,101335.72
2019-03-31T10:11:27.390Z,101334.00
2019-03-31T10:13:58.943Z,101327.58
2019-03-31T10:16:30.787Z,101322.33
2019-03-31T10:19:02.571Z,101315.60
2019-03-31T10:21:34.338Z,101320.50
2019-03-31T10:24:06.169Z,101317.12
2019-03-31T10:26:38.034Z,101309.62
2019-03-31T10:29:09.704Z,101306.36
2019-03-31T10:31:41.468Z,101301.01
2019-03-31T10:34:12.937Z,101295.25
2019-03-31T10:36:45.106Z,101292.05
2019-03-31T10:39:16.847Z,101286.02
2019-03-31T10:41:48.603Z,101286.23
2019-03-31T10:44:20.160Z,101283.64
2019-03-31T10:46:52.126Z,101279.60
2019-03-31T10:49:23.783Z,101276.59
2019-03-31T10:51:55.424Z,101267.39
2019-03-31T10:54:27.196Z,101276.83
2019-03-31T10:56:58.945Z,101272.39
2019-03-31T10:59:30.513Z,101270.64
2019-03-31T11:02:03.787Z,101263.23
2019-03-31T11:04:35.267Z,101259.47
2019-03-31T11:07:06.909Z,101266.17
2019-03-31T11:09:38.584Z,101265.97
2019-03-31T11:12:10.646Z,101260.97
2019-03-31T11:14:42.105Z,101258.05
2019-03-31T11:17:13.964Z,101261.03
2019-03-31T11:19:45.630Z,101255.74
2019-03-31T11:22:34.265Z,101250.70
2019-03-31T11:25:20.247Z,101247.83
2019-03-31T11:27:43.687Z,101245.73
2019-03-31T11:30:13.639Z,101243.14
2019-03-31T11:32:46.461Z,101236.66
2019-03-31T11:35:18.391Z,101237.37
2019-03-31T11:37:50.269Z,101234.95
2019-03-31T11:40:23.232Z,101224.08
2019-03-31T11:42:54.789Z,101226.02
2019-03-31T11:45:27.262Z,101222.57
2019-03-31T11:47:58.733Z,101221.92
2019-03-31T11:50:30.906Z,101224.80
2019-03-31T11:53:02.786Z,101211.92
2019-03-31T11:55:34.616Z,101209.90
2019-03-31T11:58:06.186Z,101212.53
2019-03-31T12:00:39.478Z,101206.81
2019-03-31T12:03:11.339Z,101196.00
2019-03-31T12:05:43.184Z,101199.36
2019-03-31T12:08:14.767Z,101190.42
2019-03-31T12:10:47.054Z,101185.48
2019-03-31T12:13:20.589Z,101191.13
2019-03-31T12:15:52.573Z,101193.13
2019-03-31T12:18:24.441Z,101188.00
2019-03-31T12:20:56.423Z,101178.41
2019-03-31T12:23:27.980Z,101178.08
2019-03-31T12:25:59.844Z,101171.17
2019-03-31T12:28:31.515Z,101169.28
2019-03-31T12:31:03.473Z,101169.13
2019-03-31T12:33:35.226Z,101164.02
2019-03-31T12:36:07.085Z,101162.73
2019-03-31T12:38:38.536Z,101158.16
2019-03-31T12:41:10.513Z,101153.77
2019-03-31T12:43:42.156Z,101158.68
2019-03-31T12:46:14.005Z,101158.34
2019-03-31T12:48:45.874Z,101152.62
2019-03-31T12:51:17.547Z,101144.73
2019-03-31T12:53:51.265Z,101139.82
2019-03-31T12:56:22.894Z,101133.91
2019-03-31T12:58:54.761Z,101131.95
2019-03-31T13:01:27.437Z,101128.01
2019-03-31T13:03:59.088Z,101124.64
2019-03-31T13:06:30.678Z,101120.38
2019-03-31T13:09:02.324Z,101119.02
2019-03-31T13:11:35.430Z,101119.16
2019-03-31T13:14:06.956Z,101119.94
2019-03-31T13:16:38.941Z,101117.89
2019-03-31T13:19:10.374Z,101110.48
2019-03-31T13:21:42.253Z,101102.78
2019-03-31T13:24:13.899Z,101100.23
2019-03-31T13:26:45.576Z,101096.77
2019-03-31T13:29:17.492Z,101090.16
2019-03-31T13:31:48.884Z,101086.33
2019-03-31T13:34:20.438Z,101082.20
2019-03-31T13:36:52.320Z,101084.70
2019-03-31T13:39:23.949Z,101079.90
2019-03-31T13:41:55.849Z,101080.95
2019-03-31T13:44:28.255Z,101069.65
2019-03-31T13:47:00.075Z,101073.06
2019-03-31T13:49:31.821Z,101070.23
2019-03-31T13:52:03.468Z,101068.47
2019-03-31T13:54:35.150Z,101063.85
2019-03-31T13:57:07.621Z,101069.08
2019-03-31T13:59:39.889Z,101068.73
2019-03-31T14:02:11.856Z,101063.47
2019-03-31T14:04:51.936Z,101058.27
2019-03-31T14:07:16.812Z,101063.91
2019-03-31T14:09:48.453Z,101055.20
2019-03-31T14:12:20.210Z,101058.16
2019-03-31T14:14:52.322Z,101051.39
2019-03-31T14:17:24.664Z,101047.13
2019-03-31T14:19:56.936Z,101051.00
2019-03-31T14:22:28.332Z,101045.64
2019-03-31T14:25:00.361Z,101054.41
2019-03-31T14:27:32.014Z,101042.56
2019-03-31T14:30:08.602Z,101048.77
2019-03-31T14:32:40.238Z,101044.15
2019-03-31T14:35:13.554Z,101036.84
2019-03-31T14:37:45.197Z,101038.64
2019-03-31T14:40:18.488Z,101033.41
2019-03-31T14:42:50.355Z,101037.84
2019-03-31T14:45:30.276Z,101031.14
2019-03-31T14:48:02.582Z,101027.41
2019-03-31T14:50:37.926Z,101025.97
2019-03-31T14:53:09.494Z,101018.27
2019-03-31T14:55:41.220Z,101021.42
2019-03-31T14:58:12.985Z,101019.84
2019-03-31T15:00:44.432Z,101020.77
2019-03-31T15:03:18.093Z,101021.83
2019-03-31T15:05:49.286Z,101018.72
2019-03-31T15:08:20.738Z,101014.45
2019-03-31T15:10:52.296Z,101013.28
2019-03-31T15:13:24.283Z,101011.17
2019-03-31T15:15:55.835Z,101008.27
2019-03-31T15:18:27.697Z,101008.23
2019-03-31T15:20:59.148Z,101013.68
2019-03-31T15:23:31.313Z,101012.73
2019-03-31T15:26:02.771Z,101017.70
2019-03-31T15:28:34.613Z,101006.93
2019-03-31T15:31:06.291Z,101016.06
2019-03-31T15:33:38.052Z,101009.15
2019-03-31T15:36:09.486Z,101010.72
2019-03-31T15:38:41.260Z,101009.98
2019-03-31T15:41:21.068Z,101010.09
2019-03-31T15:43:47.731Z,101009.40
2019-03-31T15:46:19.610Z,101004.67
2019-03-31T15:48:51.375Z,100997.75
2019-03-31T15:51:23.040Z,101002.77
2019-03-31T15:53:54.593Z,101002.67
2019-03-31T15:56:26.469Z,101002.19
2019-03-31T15:58:58.212Z,101000.39
2019-03-31T16:01:30.067Z,101014.27
2019-03-31T16:04:02.148Z,101012.63
2019-03-31T16:06:33.788Z,101007.21
2019-03-31T16:09:07.425Z,101010.30
2019-03-31T16:11:52.861Z,101009.91
2019-03-31T16:14:11.931Z,101010.06
2019-03-31T16:16:43.592Z,101011.76
2019-03-31T16:19:15.161Z,101009.92
2019-03-31T16:21:46.730Z,101019.19
2019-03-31T16:24:20.216Z,101014.03
2019-03-31T16:26:53.048Z,101015.66
2019-03-31T16:29:24.859Z,101015.91
2019-03-31T16:31:56.831Z,101025.06
2019-03-31T16:34:28.274Z,101025.27
2019-03-31T16:37:00.344Z,101019.17
2019-03-31T16:39:38.009Z,101022.56
2019-03-31T16:42:05.198Z,101020.83
2019-03-31T16:44:36.737Z,101023.13
2019-03-31T16:47:08.305Z,101018.88
2019-03-31T16:49:40.172Z,101025.48
2019-03-31T16:52:11.815Z,101030.99
2019-03-31T16:54:43.380Z,101029.13
2019-03-31T16:57:15.351Z,101026.80
2019-03-31T16:59:47.034Z,101027.13
2019-03-31T17:02:18.767Z,101031.50
2019-03-31T17:04:50.549Z,101039.15
2019-03-31T17:07:22.186Z,101040.54
2019-03-31T17:09:53.829Z,101036.27
2019-03-31T17:12:25.706Z,101037.64
2019-03-31T17:14:57.475Z,101042.55
2019-03-31T17:17:28.900Z,101037.70
2019-03-31T17:20:00.851Z,101032.03
2019-03-31T17:22:32.427Z,101039.92
2019-03-31T17:25:05.096Z,101036.65
2019-03-31T17:27:37.593Z,101042.36
2019-03-31T17:30:09.560Z,101040.78
2019-03-31T17:32:41.008Z,101038.92
2019-03-31T17:35:12.878Z,101031.38
2019-03-31T17:37:44.674Z,101042.48
2019-03-31T17:40:17.106Z,101037.64
2019-03-31T17:42:48.663Z,101034.67
2019-03-31T17:45:20.326Z,101033.36
2019-03-31T17:47:51.882Z,101036.60
2019-03-31T17:50:23.983Z,101035.80
2019-03-31T17:52:56.420Z,101035.56
2019-03-31T17:55:28.032Z,101042.33
2019-03-31T17:57:59.531Z,101034.22
2019-03-31T18:00:31.478Z,101038.31
2019-03-31T18:03:04.008Z,101040.73
2019-03-31T18:05:36.035Z,101041.56
2019-03-31T18:08:07.793Z,101049.39
2019-03-31T18:10:39.557Z,101049.39
2019-03-31T18:13:11.196Z,101046.17
2019-03-31T18:15:42.859Z,101044.29
2019-03-31T18:18:14.629Z,101050.49
2019-03-31T18:20:46.190Z,101044.54
2019-03-31T18:23:18.360Z,101051.56
2019-03-31T18:25:50.477Z,101054.02
2019-03-31T18:28:22.392Z,101047.81
2019-03-31T18:30:54.354Z,101043.75
2019-03-31T18:33:25.715Z,101042.14
2019-03-31T18:35:57.154Z,101040.23
2019-03-31T18:38:28.789Z,101038.05
2019-03-31T18:41:03.504Z,101033.16
2019-03-31T18:43:34.074Z,101030.39
2019-03-31T18:46:05.524Z,101036.86
2019-03-31T18:48:37.475Z,101037.08
2019-03-31T18:51:09.150Z,101034.63
2019-03-31T18:53:42.230Z,101038.08
2019-03-31T18:56:21.767Z,101032.38
2019-03-31T18:59:11.467Z,101035.00
2019-03-31T19:01:57.054Z,101031.17
2019-03-31T19:04:30.251Z,101027.58
2019-03-31T19:07:09.782Z,101029.12
2019-03-31T19:09:42.864Z,101032.27
2019-03-31T19:12:22.317Z,101027.91
2019-03-31T19:14:58.869Z,101026.72
2019-03-31T19:17:44.497Z,101020.67
2019-03-31T19:20:17.983Z,101018.67
2019-03-31T19:23:00.587Z,101027.45
2019-03-31T19:25:42.971Z,101026.27
2019-03-31T19:28:22.625Z,101026.11
2019-03-31T19:30:58.809Z,101025.98
2019-03-31T19:33:34.969Z,101023.95
2019-03-31T19:36:24.669Z,101023.56
2019-03-31T19:39:05.418Z,101028.80
2019-03-31T19:41:50.486Z,101031.91
2019-03-31T19:44:23.789Z,101030.46
2019-03-31T19:46:57.070Z,101039.23
2019-03-31T19:49:36.302Z,101037.27
2019-03-31T19:52:09.392Z,101036.51
2019-03-31T19:55:01.552Z,101036.51
2019-03-31T19:57:38.417Z,101037.22
2019-03-31T20:00:11.943Z,101036.53
2019-03-31T20:02:47.976Z,101042.58
2019-03-31T20:05:21.183Z,101043.32
2019-03-31T20:07:57.575Z,101040.28
2019-03-31T20:10:30.952Z,101048.54
2019-03-31T20:13:10.388Z,101048.98
2019-03-31T20:15:49.518Z,101044.53
2019-03-31T20:18:39.204Z,101055.75
2019-03-31T20:21:15.187Z,101050.02
2019-03-31T20:23:55.610Z,101058.48
2019-03-31T20:26:41.202Z,101057.03
2019-03-31T20:29:30.585Z,101055.03
2019-03-31T20:32:03.656Z,101049.21
2019-03-31T20:34:36.961Z,101053.38
2019-03-31T20:37:13.324Z,101056.73
2019-03-31T20:40:02.818Z,101053.92
2019-03-31T20:42:37.528Z,101060.45
2019-03-31T20:45:09.787Z,101059.78
2019-03-31T20:47:41.563Z,101065.03
2019-03-31T20:50:13.587Z,101068.44
2019-03-31T20:52:45.060Z,101063.77
2019-03-31T20:55:17.047Z,101069.30
2019-03-31T20:57:49.020Z,101064.42
2019-03-31T21:00:21.057Z,101074.34
2019-03-31T21:02:54.376Z,101073.48
2019-03-31T21:05:26.015Z,101085.23
2019-03-31T21:07:58.083Z,101088.84
2019-03-31T21:10:29.653Z,101084.20
2019-03-31T21:13:01.291Z,101078.72
2019-03-31T21:15:32.697Z,101079.43
2019-03-31T21:18:04.387Z,101085.26
2019-03-31T21:20:36.089Z,101089.22
2019-03-31T21:23:08.146Z,101080.82
2019-03-31T21:25:40.387Z,101079.21
2019-03-31T21:28:12.136Z,101085.31
2019-03-31T21:30:44.024Z,101078.48
2019-03-31T21:33:15.700Z,101081.94
2019-03-31T21:35:48.708Z,101078.09
2019-03-31T21:38:22.358Z,101080.14
2019-03-31T21:40:53.516Z,101070.16
2019-03-31T21:43:25.428Z,101075.99
2019-03-31T21:45:57.234Z,101073.25
2019-03-31T21:48:29.099Z,101072.08
2019-03-31T21:51:00.978Z,101071.95
2019-03-31T21:53:32.619Z,101071.84
2019-03-31T21:56:04.391Z,101072.02
2019-03-31T21:58:36.152Z,101072.69
2019-03-31T22:01:07.601Z,101075.19
2019-03-31T22:03:40.288Z,101081.74
2019-03-31T22:06:12.139Z,101078.36
2019-03-31T22:08:44.001Z,101079.25
2019-03-31T22:11:15.675Z,101078.38
2019-03-31T22:13:48.764Z,101077.50
2019-03-31T22:16:20.315Z,101077.36
2019-03-31T22:18:52.180Z,101077.52
2019-03-31T22:21:23.770Z,101072.40
2019-03-31T22:23:58.003Z,101065.57
2019-03-31T22:26:29.510Z,101064.92
2019-03-31T22:29:00.950Z,101071.77
2019-03-31T22:31:32.717Z,101073.83
2019-03-31T22:34:04.696Z,101069.48
2019-03-31T22:36:36.243Z,101074.75
2019-03-31T22:39:08.204Z,101072.81
2019-03-31T22:41:40.149Z,101066.58
2019-03-31T22:44:11.933Z,101066.51
2019-03-31T22:46:54.062Z,101061.12
2019-03-31T22:49:16.979Z,101069.87
2019-03-31T22:51:49.146Z,101062.61
2019-03-31T22:54:20.870Z,101060.36
2019-03-31T22:56:52.755Z,101062.16
2019-03-31T22:59:24.317Z,101056.23
2019-03-31T23:01:55.881Z,101052.38
2019-03-31T23:04:27.413Z,101058.00
2019-03-31T23:06:58.765Z,101050.97
2019-03-31T23:09:30.651Z,101047.91
2019-03-31T23:12:02.401Z,101050.42
2019-03-31T23:14:34.468Z,101049.20
2019-03-31T23:17:05.926Z,101045.26
2019-03-31T23:19:37.284Z,101046.21
2019-03-31T23:22:09.134Z,101041.85
2019-03-31T23:24:40.699Z,101043.03
2019-03-31T23:27:12.837Z,101045.09
2019-03-31T23:29:44.513Z,101047.63
2019-03-31T23:32:16.348Z,101039.54
2019-03-31T23:35:08.850Z,101042.12
2019-03-31T23:37:41.295Z,101038.84
2019-03-31T23:40:12.953Z,101035.30
2019-03-31T23:42:44.612Z,101031.43
2019-03-31T23:45:16.222Z,101029.52
2019-03-31T23:47:47.940Z,101024.59
2019-03-31T23:50:19.941Z,101027.22
2019-03-31T23:52:51.979Z,101018.90
2019-03-31T23:55:23.427Z,101019.13
2019-03-31T23:57:55.252Z,101019.27
